Time;durP1;ratioP1;P1;durP2;ratioP2;P2;SDS_P1;SDS_P2;PMS_P1;PMS_P2;Temp;Humidity;BMP_temperature;BMP_pressure;BME280_temperature;BME280_humidity;BME280_pressure;Samples;Min_cycle;Max_cycle;Signal;HPM_P1;HPM_P2
2021/12/09 00:01:16;;;;;;;4.10;2.65;;;16.70;56.00;;;;;;5050934;28;20633;-61
2021/12/09 00:03:42;;;;;;;3.33;2.22;;;16.70;56.10;;;;;;5052968;28;20259;-61
2021/12/09 00:06:11;;;;;;;4.15;2.67;;;16.60;56.00;;;;;;5054917;28;20597;-60
2021/12/09 00:08:38;;;;;;;3.55;2.85;;;16.60;56.60;;;;;;5055468;28;20275;-60
2021/12/09 00:11:04;;;;;;;2.42;2.22;;;16.60;55.90;;;;;;5055701;28;20673;-61
2021/12/09 00:13:30;;;;;;;5.07;3.15;;;16.60;55.90;;;;;;5054658;28;20360;-61
2021/12/09 00:15:55;;;;;;;3.35;2.55;;;16.60;55.90;;;;;;5055467;28;20245;-61
2021/12/09 00:18:21;;;;;;;3.15;2.53;;;16.60;55.90;;;;;;5055221;28;20321;-61
2021/12/09 00:20:47;;;;;;;4.22;3.25;;;16.60;55.90;;;;;;5054644;28;20651;-61
2021/12/09 00:23:12;;;;;;;4.05;2.75;;;16.60;56.00;;;;;;5055219;28;20167;-61
2021/12/09 00:25:41;;;;;;;3.58;2.63;;;16.50;55.90;;;;;;5055177;28;20756;-60
2021/12/09 00:28:06;;;;;;;3.40;3.08;;;16.50;55.90;;;;;;5054544;28;20210;-60
2021/12/09 00:30:32;;;;;;;4.28;2.83;;;16.50;55.90;;;;;;5054900;28;20195;-60
2021/12/09 00:32:59;;;;;;;4.85;3.10;;;16.50;55.80;;;;;;5055176;28;20660;-61
2021/12/09 00:35:30;;;;;;;3.35;2.67;;;16.50;55.80;;;;;;5053907;28;20186;-61
2021/12/09 00:38:04;;;;;;;3.03;2.53;;;16.50;55.90;;;;;;5055309;28;20625;-60
2021/12/09 00:40:30;;;;;;;3.60;2.85;;;16.50;56.50;;;;;;5054803;28;20198;-60
2021/12/09 00:42:55;;;;;;;4.68;3.40;;;16.50;55.90;;;;;;5054349;28;20208;-60
2021/12/09 00:45:21;;;;;;;3.88;2.85;;;16.40;55.80;;;;;;5054811;28;20179;-60
2021/12/09 00:47:47;;;;;;;4.25;2.92;;;16.40;55.80;;;;;;5054866;28;20230;-60
2021/12/09 00:50:12;;;;;;;3.90;3.00;;;16.40;55.80;;;;;;5054220;28;20167;-60
2021/12/09 00:52:38;;;;;;;4.20;2.35;;;16.40;55.70;;;;;;5054372;28;21025;-61
2021/12/09 00:55:04;;;;;;;4.57;3.17;;;16.40;55.70;;;;;;5054711;28;20178;-59
2021/12/09 00:57:29;;;;;;;4.53;2.80;;;16.30;55.80;;;;;;5053700;28;20180;-59
2021/12/09 00:59:55;;;;;;;4.32;2.67;;;16.30;55.70;;;;;;5054517;28;20178;-59
2021/12/09 01:02:20;;;;;;;3.63;2.85;;;16.30;55.70;;;;;;5053647;28;20225;-59
2021/12/09 01:04:46;;;;;;;3.78;2.83;;;16.30;55.70;;;;;;5054515;28;20175;-59
2021/12/09 01:07:11;;;;;;;6.53;3.05;;;16.30;55.70;;;;;;5054908;28;20222;-58
2021/12/09 01:09:37;;;;;;;4.07;2.75;;;16.30;55.70;;;;;;5053713;28;20245;-60
2021/12/09 01:12:04;;;;;;;3.30;2.55;;;16.30;55.70;;;;;;5054284;28;20590;-61
2021/12/09 01:14:29;;;;;;;3.60;2.80;;;16.30;55.70;;;;;;5053371;28;20696;-61
2021/12/09 01:16:55;;;;;;;2.92;2.58;;;16.30;55.70;;;;;;5053256;28;20179;-61
2021/12/09 01:19:20;;;;;;;3.40;2.72;;;16.30;55.70;;;;;;5053764;28;20262;-60
2021/12/09 01:21:46;;;;;;;2.95;2.63;;;16.20;55.60;;;;;;5054233;28;20229;-61
2021/12/09 01:24:11;;;;;;;5.07;3.28;;;16.30;55.70;;;;;;5053675;28;20196;-60
2021/12/09 01:26:37;;;;;;;3.58;2.83;;;16.20;55.60;;;;;;5053878;28;20178;-59
2021/12/09 01:29:11;;;;;;;4.60;2.72;;;16.20;55.60;;;;;;5054332;28;20194;-59
2021/12/09 01:31:38;;;;;;;3.70;2.88;;;16.20;55.70;;;;;;5052904;28;20175;-59
2021/12/09 01:34:04;;;;;;;3.55;2.67;;;16.20;55.60;;;;;;5054313;28;20186;-60
2021/12/09 01:36:30;;;;;;;3.47;3.08;;;16.20;55.60;;;;;;5053926;28;20258;-59
2021/12/09 01:38:56;;;;;;;4.55;3.28;;;16.20;55.60;;;;;;5053432;28;20171;-60
2021/12/09 01:41:21;;;;;;;3.42;2.97;;;16.20;55.60;;;;;;5053770;28;20186;-60
2021/12/09 01:43:47;;;;;;;3.60;2.85;;;16.20;55.60;;;;;;5053839;28;20668;-59
2021/12/09 01:46:14;;;;;;;3.25;2.35;;;16.10;55.60;;;;;;5053157;28;20179;-59
2021/12/09 01:48:40;;;;;;;5.35;2.97;;;16.10;55.50;;;;;;5053616;28;20317;-59
2021/12/09 01:51:06;;;;;;;3.25;2.80;;;16.10;55.50;;;;;;5053800;28;20183;-60
2021/12/09 01:53:31;;;;;;;3.90;2.60;;;16.10;55.50;;;;;;5052462;28;20231;-60
2021/12/09 01:55:59;;;;;;;4.32;2.92;;;16.10;55.50;;;;;;5053689;28;20167;-60
2021/12/09 01:58:24;;;;;;;3.72;2.58;;;16.10;55.50;;;;;;5053206;28;20221;-60
2021/12/09 02:00:50;;;;;;;4.03;2.90;;;16.10;55.50;;;;;;5052795;28;20171;-60
2021/12/09 02:03:15;;;;;;;2.95;2.58;;;16.00;55.40;;;;;;5053631;28;20171;-60
2021/12/09 02:05:41;;;;;;;4.60;3.03;;;16.10;55.40;;;;;;5052631;28;20167;-59
2021/12/09 02:08:12;;;;;;;3.38;3.08;;;16.00;55.40;;;;;;5053263;28;20622;-60
2021/12/09 02:10:37;;;;;;;3.80;2.80;;;16.00;55.40;;;;;;5053147;28;20179;-60
2021/12/09 02:13:03;;;;;;;3.45;2.70;;;16.00;55.40;;;;;;5052624;28;20175;-60
2021/12/09 02:15:28;;;;;;;4.22;2.80;;;16.00;55.40;;;;;;5052890;28;20197;-60
2021/12/09 02:17:55;;;;;;;5.05;3.17;;;16.00;55.30;;;;;;5053091;28;20532;-60
2021/12/09 02:20:27;;;;;;;4.00;2.90;;;16.00;55.40;;;;;;5052282;28;20175;-60
2021/12/09 02:22:52;;;;;;;4.07;2.92;;;16.00;55.40;;;;;;5053255;28;20175;-60
2021/12/09 02:25:18;;;;;;;3.95;2.85;;;16.00;55.40;;;;;;5053020;28;20503;-60
2021/12/09 02:27:44;;;;;;;3.75;2.58;;;15.90;55.30;;;;;;5052015;28;20578;-60
2021/12/09 02:30:09;;;;;;;4.20;3.25;;;15.90;55.30;;;;;;5053013;28;20618;-60
2021/12/09 02:32:35;;;;;;;3.40;2.80;;;15.90;55.30;;;;;;5053013;28;20175;-60
2021/12/09 02:35:00;;;;;;;2.95;2.50;;;15.90;55.30;;;;;;5052157;28;20498;-60
2021/12/09 02:37:26;;;;;;;5.05;3.03;;;15.90;55.30;;;;;;5052653;28;20187;-60
2021/12/09 02:39:51;;;;;;;3.58;2.70;;;15.90;55.30;;;;;;5053084;28;20285;-60
2021/12/09 02:42:17;;;;;;;5.05;2.72;;;15.90;55.40;;;;;;5052056;28;20337;-60
2021/12/09 02:44:45;;;;;;;3.00;2.60;;;15.90;55.30;;;;;;5052461;28;20293;-60
2021/12/09 02:47:10;;;;;;;3.67;2.90;;;15.90;55.30;;;;;;5052891;28;20215;-60
2021/12/09 02:49:36;;;;;;;3.53;3.08;;;15.90;55.30;;;;;;5051867;28;20179;-60
2021/12/09 02:52:03;;;;;;;4.30;3.35;;;15.90;55.30;;;;;;5052501;28;20215;-60
2021/12/09 02:54:29;;;;;;;3.40;3.10;;;15.80;55.30;;;;;;5052316;28;20212;-60
2021/12/09 02:56:58;;;;;;;4.45;3.13;;;15.80;55.30;;;;;;5051986;28;20190;-60
2021/12/09 02:59:23;;;;;;;3.03;2.42;;;15.80;55.30;;;;;;5052026;28;20202;-60
2021/12/09 03:02:00;;;;;;;3.15;2.53;;;15.80;55.30;;;;;;5052048;28;20638;-60
2021/12/09 03:04:35;;;;;;;5.35;2.85;;;15.80;55.30;;;;;;5052040;28;20179;-60
2021/12/09 03:07:01;;;;;;;3.00;2.47;;;15.80;55.30;;;;;;5052647;28;20245;-59
2021/12/09 03:09:28;;;;;;;3.58;2.72;;;15.80;55.20;;;;;;5051562;28;20187;-59
2021/12/09 03:11:55;;;;;;;3.15;2.33;;;15.80;55.30;;;;;;5052325;28;20183;-60
2021/12/09 03:14:22;;;;;;;4.70;2.72;;;15.80;55.30;;;;;;5051899;28;20266;-60
2021/12/09 03:16:47;;;;;;;3.22;2.88;;;15.70;55.30;;;;;;5051508;28;20262;-60
2021/12/09 03:19:13;;;;;;;2.78;2.58;;;15.70;55.30;;;;;;5052184;28;20305;-59
2021/12/09 03:21:40;;;;;;;2.63;2.42;;;15.70;55.30;;;;;;5051871;28;20171;-59
2021/12/09 03:24:07;;;;;;;3.45;2.65;;;15.70;55.20;;;;;;5051232;28;20261;-59
2021/12/09 03:26:36;;;;;;;3.88;2.95;;;15.70;55.20;;;;;;5051455;28;20175;-59
2021/12/09 03:29:07;;;;;;;3.47;2.35;;;15.70;55.20;;;;;;5052075;28;20213;-58
2021/12/09 03:31:33;;;;;;;4.00;2.85;;;15.70;55.20;;;;;;5050982;28;20542;-59
2021/12/09 03:33:58;;;;;;;3.63;2.78;;;15.70;55.30;;;;;;5051874;28;20648;-59
2021/12/09 03:36:28;;;;;;;3.25;2.35;;;15.70;55.30;;;;;;5051493;28;20182;-59
2021/12/09 03:38:58;;;;;;;2.63;2.25;;;15.70;55.20;;;;;;5050422;28;20544;-59
2021/12/09 03:41:24;;;;;;;5.07;2.75;;;15.70;55.20;;;;;;5051632;28;20273;-60
2021/12/09 03:43:49;;;;;;;2.65;2.30;;;15.70;55.30;;;;;;5051793;28;20569;-60
2021/12/09 03:46:15;;;;;;;3.67;2.55;;;15.60;55.20;;;;;;5050944;28;20635;-60
2021/12/09 03:48:41;;;;;;;3.65;2.60;;;15.60;55.20;;;;;;5051149;28;20325;-59
2021/12/09 03:51:06;;;;;;;3.17;2.72;;;15.60;55.20;;;;;;5050841;28;20203;-59
2021/12/09 03:53:32;;;;;;;3.30;2.78;;;15.60;55.20;;;;;;5050956;28;20283;-60
2021/12/09 03:55:57;;;;;;;2.38;2.17;;;15.60;55.20;;;;;;5051708;28;20174;-60
2021/12/09 03:58:23;;;;;;;5.20;2.83;;;15.60;55.20;;;;;;5050568;28;20237;-60
2021/12/09 04:00:49;;;;;;;3.03;2.63;;;15.60;55.80;;;;;;5051117;28;20183;-60
2021/12/09 04:03:16;;;;;;;2.58;2.35;;;15.60;55.20;;;;;;5051657;28;20732;-60
2021/12/09 04:05:42;;;;;;;3.40;2.60;;;15.50;55.80;;;;;;5050621;28;20187;-60
2021/12/09 04:08:07;;;;;;;3.45;2.47;;;15.60;55.20;;;;;;5051535;28;20207;-60
2021/12/09 04:10:33;;;;;;;3.22;2.55;;;15.50;55.20;;;;;;5051332;28;20172;-59
2021/12/09 04:12:58;;;;;;;2.80;2.55;;;15.50;55.20;;;;;;5050701;28;20186;-60
2021/12/09 04:15:24;;;;;;;2.78;2.33;;;15.50;55.20;;;;;;5051180;28;20178;-60
2021/12/09 04:17:49;;;;;;;2.65;2.40;;;15.50;55.20;;;;;;5051148;28;20181;-60
2021/12/09 04:20:15;;;;;;;3.53;2.40;;;15.50;55.20;;;;;;5050566;28;20269;-60
2021/12/09 04:22:48;;;;;;;3.30;2.40;;;15.50;55.20;;;;;;5050843;28;20205;-59
2021/12/09 04:25:13;;;;;;;3.53;2.30;;;15.50;55.20;;;;;;5051108;28;20649;-59
2021/12/09 04:27:39;;;;;;;2.85;2.50;;;15.50;55.20;;;;;;5050252;28;20250;-59
2021/12/09 04:30:04;;;;;;;2.50;2.20;;;15.50;55.30;;;;;;5051381;28;20171;-59
2021/12/09 04:32:30;;;;;;;2.38;2.10;;;15.50;55.20;;;;;;5050829;28;20171;-60
2021/12/09 04:34:57;;;;;;;2.85;2.38;;;15.50;55.30;;;;;;5050517;28;20209;-60
2021/12/09 04:37:22;;;;;;;3.60;2.47;;;15.40;55.20;;;;;;5051167;28;20709;-61
2021/12/09 04:39:48;;;;;;;2.95;2.38;;;15.40;55.30;;;;;;5051255;28;20260;-60
2021/12/09 04:42:13;;;;;;;3.35;2.20;;;15.40;55.30;;;;;;5050540;28;20179;-60
2021/12/09 04:44:39;;;;;;;2.65;2.40;;;15.40;55.20;;;;;;5050584;28;20171;-60
2021/12/09 04:47:04;;;;;;;2.33;2.13;;;15.40;55.30;;;;;;5050981;28;20226;-59
2021/12/09 04:49:30;;;;;;;2.88;2.28;;;15.40;55.20;;;;;;5051057;28;20179;-60
2021/12/09 04:51:57;;;;;;;2.63;2.30;;;15.40;55.20;;;;;;5054384;28;20223;-59
2021/12/09 04:54:23;;;;;;;2.58;2.30;;;15.40;55.20;;;;;;5053742;28;20183;-59
2021/12/09 04:56:49;;;;;;;3.40;2.22;;;15.40;55.20;;;;;;5054746;28;20214;-60
2021/12/09 04:59:14;;;;;;;3.00;2.38;;;15.30;55.20;;;;;;5054435;28;20202;-61
2021/12/09 05:01:44;;;;;;;2.30;2.10;;;15.40;55.20;;;;;;5053718;28;20257;-60
2021/12/09 05:04:10;;;;;;;2.42;2.22;;;15.30;55.20;;;;;;5054358;28;20186;-60
2021/12/09 05:06:35;;;;;;;2.28;2.08;;;15.30;55.20;;;;;;5054254;28;20171;-60
2021/12/09 05:09:08;;;;;;;2.33;2.10;;;15.30;55.20;;;;;;5053624;28;20233;-60
2021/12/09 05:14:02;;;;;;;2.75;2.35;;;15.30;55.30;;;;;;5054612;28;20175;-61
2021/12/09 05:16:28;;;;;;;2.33;2.05;;;15.30;55.20;;;;;;5053182;28;20179;-60
2021/12/09 05:18:58;;;;;;;2.60;2.35;;;15.30;55.20;;;;;;5054231;28;20175;-60
2021/12/09 05:21:35;;;;;;;2.55;1.98;;;15.30;55.20;;;;;;5054254;28;20232;-60
2021/12/09 05:24:01;;;;;;;3.47;2.30;;;15.30;55.20;;;;;;5053757;28;20179;-60
2021/12/09 05:26:31;;;;;;;2.35;2.15;;;15.30;55.20;;;;;;5053961;28;20632;-60
2021/12/09 05:29:00;;;;;;;2.90;1.95;;;15.30;55.20;;;;;;5054152;28;20256;-60
2021/12/09 05:34:11;;;;;;;2.88;2.30;;;15.20;55.20;;;;;;5054263;28;20533;-60
2021/12/09 05:36:37;;;;;;;2.22;1.90;;;15.20;55.20;;;;;;5052924;28;20179;-60
2021/12/09 05:39:03;;;;;;;2.13;1.83;;;15.20;55.20;;;;;;5053992;28;20167;-60
2021/12/09 05:41:30;;;;;;;2.35;1.98;;;15.20;55.20;;;;;;5053595;28;20175;-60
2021/12/09 05:43:56;;;;;;;2.28;2.08;;;15.20;55.20;;;;;;5053153;28;20214;-59
2021/12/09 05:46:24;;;;;;;3.10;2.15;;;15.20;55.20;;;;;;5053417;28;20203;-59
2021/12/09 05:48:50;;;;;;;1.85;1.73;;;15.20;55.20;;;;;;5053649;28;20203;-59
2021/12/09 05:51:15;;;;;;;2.58;2.20;;;15.20;55.20;;;;;;5053051;28;20680;-59
2021/12/09 05:53:44;;;;;;;2.95;2.10;;;15.20;55.20;;;;;;5053045;28;20565;-59
2021/12/09 05:56:09;;;;;;;2.25;2.05;;;15.10;55.20;;;;;;5053360;28;20188;-59
2021/12/09 05:58:35;;;;;;;3.20;2.25;;;15.20;55.20;;;;;;5052432;28;20168;-60
2021/12/09 06:01:00;;;;;;;2.22;1.98;;;15.10;55.30;;;;;;5052952;28;20634;-59
2021/12/09 06:03:26;;;;;;;3.13;1.98;;;15.20;55.30;;;;;;5053182;28;20232;-59
2021/12/09 06:05:51;;;;;;;2.42;1.85;;;15.20;55.00;;;;;;5052889;28;20236;-58
2021/12/09 06:08:17;;;;;;;2.92;2.35;;;15.20;55.10;;;;;;5053238;28;20229;-59
2021/12/09 06:10:43;;;;;;;2.60;1.98;;;15.30;55.30;;;;;;5053067;28;20292;-60
2021/12/09 06:13:09;;;;;;;2.25;1.90;;;15.30;55.30;;;;;;5052532;28;20282;-59
2021/12/09 06:15:34;;;;;;;2.25;2.05;;;15.50;55.40;;;;;;5053069;28;20166;-60
2021/12/09 06:18:00;;;;;;;1.85;1.73;;;15.60;55.10;;;;;;5052996;28;20583;-59
2021/12/09 06:20:25;;;;;;;2.20;2.00;;;15.80;55.00;;;;;;5052039;28;20197;-59
2021/12/09 06:22:51;;;;;;;1.95;1.70;;;16.00;54.70;;;;;;5052973;28;20175;-59
2021/12/09 06:25:18;;;;;;;2.75;2.22;;;16.20;54.40;;;;;;5052965;28;20186;-59
2021/12/09 06:27:45;;;;;;;1.90;1.80;;;16.30;54.00;;;;;;5052025;28;20265;-59
2021/12/09 06:30:11;;;;;;;2.25;1.95;;;16.50;53.80;;;;;;5052909;28;20198;-59
2021/12/09 06:32:37;;;;;;;2.60;1.83;;;16.60;53.60;;;;;;5052537;28;20548;-59
2021/12/09 06:35:04;;;;;;;2.15;1.83;;;16.70;53.40;;;;;;5052266;28;20262;-60
2021/12/09 06:37:30;;;;;;;2.10;1.77;;;16.80;54.00;;;;;;5052547;28;20183;-60
2021/12/09 06:39:55;;;;;;;1.75;1.65;;;16.90;53.30;;;;;;5052032;28;20171;-62
2021/12/09 06:42:21;;;;;;;1.85;1.75;;;16.90;53.20;;;;;;5052220;28;20638;-59
2021/12/09 06:44:46;;;;;;;1.80;1.70;;;16.90;53.30;;;;;;5052729;28;20183;-59
2021/12/09 06:47:12;;;;;;;2.20;1.42;;;17.00;53.10;;;;;;5052021;28;20217;-59
2021/12/09 06:49:37;;;;;;;2.60;2.22;;;17.10;53.00;;;;;;5052418;28;20182;-58
2021/12/09 06:52:03;;;;;;;2.00;1.70;;;17.10;52.80;;;;;;5052513;28;20305;-59
2021/12/09 06:54:29;;;;;;;2.00;1.70;;;17.10;52.80;;;;;;5051395;28;20183;-59
2021/12/09 06:56:54;;;;;;;1.58;1.48;;;17.10;52.90;;;;;;5052618;28;20178;-61
2021/12/09 06:59:20;;;;;;;1.98;1.70;;;17.00;53.10;;;;;;5052304;28;20178;-61
2021/12/09 07:01:45;;;;;;;2.55;1.42;;;16.90;53.10;;;;;;5051657;28;20182;-60
2021/12/09 07:04:11;;;;;;;1.70;1.60;;;16.90;53.30;;;;;;5052257;28;20325;-60
2021/12/09 07:06:37;;;;;;;1.27;1.17;;;16.80;53.30;;;;;;5051846;28;20264;-60
2021/12/09 07:09:04;;;;;;;2.33;1.55;;;16.80;53.40;;;;;;5051649;28;20223;-59
2021/12/09 07:11:31;;;;;;;1.70;1.33;;;16.80;53.60;;;;;;5052038;28;20305;-60
2021/12/09 07:13:56;;;;;;;1.65;1.55;;;16.80;53.60;;;;;;5051309;28;20179;-60
2021/12/09 07:16:22;;;;;;;1.50;1.40;;;16.90;53.50;;;;;;5051206;28;20177;-60
2021/12/09 07:18:48;;;;;;;2.15;1.45;;;16.90;53.40;;;;;;5052146;28;20258;-60
2021/12/09 07:21:13;;;;;;;1.92;1.83;;;17.00;53.30;;;;;;5052186;28;20543;-60
2021/12/09 07:23:39;;;;;;;1.95;1.63;;;17.10;53.20;;;;;;5050943;28;20195;-60
2021/12/09 07:26:04;;;;;;;1.63;1.52;;;17.20;53.20;;;;;;5051965;28;20179;-60
2021/12/09 07:28:30;;;;;;;2.00;1.80;;;17.20;53.10;;;;;;5051460;28;20219;-60
2021/12/09 07:30:55;;;;;;;1.70;1.60;;;17.30;52.90;;;;;;5051146;28;20182;-59
2021/12/09 07:33:21;;;;;;;1.65;1.50;;;17.60;52.70;;;;;;5051742;28;20173;-59
2021/12/09 07:35:46;;;;;;;1.58;1.48;;;17.80;52.30;;;;;;5051805;28;20538;-60
2021/12/09 07:38:12;;;;;;;1.63;1.42;;;18.00;51.80;;;;;;5051048;28;20668;-59
2021/12/09 07:40:37;;;;;;;1.77;1.67;;;18.00;51.60;;;;;;5051325;28;20175;-60
2021/12/09 07:43:03;;;;;;;2.08;1.38;;;18.20;51.50;;;;;;5051818;28;20172;-60
2021/12/09 07:45:29;;;;;;;2.28;1.42;;;18.20;51.40;;;;;;5050729;28;20616;-60
2021/12/09 07:47:55;;;;;;;1.88;1.58;;;18.40;51.20;;;;;;5051703;28;20260;-66
2021/12/09 07:50:22;;;;;;;1.55;1.45;;;18.50;51.80;;;;;;5050308;28;20626;-64
2021/12/09 07:52:48;;;;;;;1.63;1.52;;;18.50;51.00;;;;;;5051045;28;20238;-64
2021/12/09 07:55:14;;;;;;;3.67;1.88;;;18.60;50.90;;;;;;5051615;28;20265;-64
2021/12/09 07:57:40;;;;;;;2.00;1.40;;;18.60;50.90;;;;;;5050607;28;20222;-64
2021/12/09 08:00:07;;;;;;;2.00;1.60;;;18.70;50.90;;;;;;5051043;28;20182;-65
2021/12/09 08:02:33;;;;;;;2.08;1.67;;;18.70;50.80;;;;;;5051401;28;20608;-68
2021/12/09 08:04:58;;;;;;;2.28;1.40;;;18.80;50.70;;;;;;5050475;28;20202;-68
2021/12/09 08:07:24;;;;;;;2.28;1.60;;;18.80;50.80;;;;;;5050779;28;20207;-68
2021/12/09 08:09:50;;;;;;;2.28;1.73;;;18.80;50.80;;;;;;5051357;28;20179;-68
2021/12/09 08:12:16;;;;;;;3.60;1.77;;;18.80;50.90;;;;;;5050489;28;20321;-67
2021/12/09 08:14:47;;;;;;;3.40;1.92;;;18.80;50.90;;;;;;5050917;28;20664;-67
2021/12/09 08:18:02;;;;;;;1.85;1.65;;;18.80;50.90;;;;;;5051432;28;20258;-67
2021/12/09 08:20:11;;;;;;;2.08;1.48;;;18.80;51.00;;;;;;5042101;28;20194;-67
2021/12/09 08:22:36;;;;;;;3.75;1.45;;;18.80;51.00;;;;;;5049558;28;20178;-66
2021/12/09 08:25:02;;;;;;;2.22;1.70;;;18.80;51.10;;;;;;5053256;28;20198;-67
2021/12/09 08:27:29;;;;;;;4.43;2.03;;;18.80;51.10;;;;;;5054093;28;20218;-66
2021/12/09 08:29:54;;;;;;;3.75;1.90;;;18.80;51.00;;;;;;5055354;28;20182;-67
2021/12/09 08:32:20;;;;;;;3.80;1.50;;;18.90;51.00;;;;;;5054769;28;20179;-69
2021/12/09 08:34:45;;;;;;;1.98;1.75;;;18.80;51.00;;;;;;5054024;28;20202;-69
2021/12/09 08:37:11;;;;;;;3.78;1.90;;;18.90;51.00;;;;;;5055213;28;20171;-68
2021/12/09 08:39:37;;;;;;;3.45;1.73;;;18.90;51.00;;;;;;5053774;28;20202;-68
2021/12/09 08:42:02;;;;;;;2.92;2.08;;;18.90;51.00;;;;;;5054849;28;20605;-68
2021/12/09 08:44:28;;;;;;;2.90;1.65;;;18.90;51.00;;;;;;5054677;28;20640;-68
2021/12/09 08:46:53;;;;;;;2.53;1.50;;;18.90;51.00;;;;;;5053864;28;20221;-68
2021/12/09 08:49:19;;;;;;;1.88;1.73;;;18.90;51.00;;;;;;5054515;28;20171;-67
2021/12/09 08:51:45;;;;;;;1.98;1.52;;;18.90;51.10;;;;;;5054623;28;20183;-67
2021/12/09 08:54:10;;;;;;;3.17;1.73;;;18.90;51.10;;;;;;5054183;28;20572;-67
2021/12/09 08:56:44;;;;;;;2.92;1.80;;;18.90;51.20;;;;;;5054261;28;20486;-67
2021/12/09 08:59:09;;;;;;;4.55;1.77;;;18.90;51.30;;;;;;5054597;28;20175;-67
2021/12/09 09:01:35;;;;;;;2.45;1.70;;;18.90;51.40;;;;;;5053522;28;20167;-67
2021/12/09 09:04:01;;;;;;;3.47;1.70;;;18.80;51.40;;;;;;5054418;28;20646;-67
2021/12/09 09:06:29;;;;;;;2.60;1.90;;;18.90;51.50;;;;;;5054120;28;20190;-67
2021/12/09 09:08:57;;;;;;;2.45;1.77;;;18.80;51.60;;;;;;5053632;28;20681;-67
2021/12/09 09:11:23;;;;;;;2.17;1.80;;;18.80;51.50;;;;;;5054136;28;20229;-67
2021/12/09 09:13:49;;;;;;;2.47;1.63;;;18.80;51.60;;;;;;5054334;28;20214;-67
2021/12/09 09:16:15;;;;;;;2.25;1.98;;;18.80;51.60;;;;;;5053491;28;20195;-66
2021/12/09 09:18:40;;;;;;;2.25;1.60;;;18.70;51.60;;;;;;5053828;28;20258;-66
2021/12/09 09:21:06;;;;;;;2.40;1.63;;;18.70;51.80;;;;;;5054351;28;20223;-67
2021/12/09 09:23:31;;;;;;;1.80;1.50;;;18.70;51.80;;;;;;5053123;28;20182;-67
2021/12/09 09:25:57;;;;;;;1.92;1.40;;;18.60;51.90;;;;;;5053949;28;20630;-66
2021/12/09 09:28:22;;;;;;;1.70;1.40;;;18.60;51.90;;;;;;5052457;28;20298;-66
2021/12/09 09:30:53;;;;;;;3.10;1.70;;;18.60;52.00;;;;;;5052045;28;20532;-67
2021/12/09 09:33:19;;;;;;;2.08;1.55;;;18.60;52.00;;;;;;5053886;28;20258;-68
2021/12/09 09:35:45;;;;;;;3.05;1.75;;;18.60;52.10;;;;;;5052500;28;20180;-68
2021/12/09 09:38:10;;;;;;;2.05;1.73;;;18.50;52.10;;;;;;5053983;28;20171;-68
2021/12/09 09:40:59;;;;;;;2.63;1.90;;;18.50;52.10;;;;;;5053523;28;20175;-68
2021/12/09 09:43:27;;;;;;;2.15;1.65;;;18.50;52.10;;;;;;5052714;28;20205;-67
2021/12/09 09:45:54;;;;;;;2.05;1.63;;;18.50;52.20;;;;;;5054059;28;20193;-67
2021/12/09 09:48:19;;;;;;;2.20;1.50;;;18.50;52.30;;;;;;5053565;28;20251;-66
2021/12/09 09:50:45;;;;;;;1.90;1.42;;;18.40;52.20;;;;;;5053169;28;20239;-67
2021/12/09 09:53:10;;;;;;;1.20;1.10;;;18.40;52.20;;;;;;5053698;28;20230;-67
2021/12/09 09:55:36;;;;;;;3.03;1.73;;;18.50;52.30;;;;;;5053246;28;20175;-67
2021/12/09 09:58:02;;;;;;;1.67;1.55;;;18.50;52.30;;;;;;5052753;28;20172;-67
2021/12/09 10:00:27;;;;;;;1.67;1.30;;;18.40;52.30;;;;;;5053514;28;20179;-68
2021/12/09 10:03:02;;;;;;;2.97;1.73;;;18.40;52.40;;;;;;5053582;28;20171;-68
2021/12/09 10:05:35;;;;;;;2.38;1.70;;;18.40;52.40;;;;;;5052614;28;20299;-68
2021/12/09 10:08:01;;;;;;;3.63;1.80;;;18.50;52.30;;;;;;5053286;28;20218;-67
2021/12/09 10:10:27;;;;;;;2.25;1.63;;;18.50;52.40;;;;;;5052972;28;20186;-67
2021/12/09 10:13:06;;;;;;;4.30;1.73;;;18.40;52.30;;;;;;5052938;28;20509;-67
2021/12/09 10:15:33;;;;;;;1.73;1.60;;;18.50;52.40;;;;;;5053046;28;20212;-67
2021/12/09 10:17:59;;;;;;;2.05;1.73;;;18.50;52.30;;;;;;5052628;28;20190;-67
2021/12/09 10:20:52;;;;;;;1.40;1.30;;;18.40;52.30;;;;;;5053165;28;20189;-67
2021/12/09 10:23:28;;;;;;;2.00;1.35;;;18.40;52.20;;;;;;5052146;28;20545;-66
2021/12/09 10:26:14;;;;;;;2.25;1.60;;;18.50;52.30;;;;;;5052448;28;20179;-66
2021/12/09 10:28:41;;;;;;;2.67;1.88;;;18.50;52.30;;;;;;5052489;28;20762;-66
2021/12/09 10:31:33;;;;;;;3.10;1.35;;;18.40;52.30;;;;;;5052897;28;20259;-67
2021/12/09 10:36:52;;;;;;;1.55;1.45;;;18.50;52.40;;;;;;5052544;28;20353;-69
2021/12/09 10:39:25;;;;;;;1.50;1.40;;;18.50;52.30;;;;;;5052383;28;20194;-67
2021/12/09 10:41:50;;;;;;;2.25;1.63;;;18.50;52.30;;;;;;5052899;28;20178;-68
2021/12/09 10:44:16;;;;;;;1.50;1.40;;;18.50;52.30;;;;;;5053057;28;20537;-68
2021/12/09 10:46:49;;;;;;;2.00;1.50;;;18.50;52.30;;;;;;5051963;28;20167;-67
2021/12/09 10:49:16;;;;;;;2.10;1.83;;;18.40;52.30;;;;;;5052837;28;20211;-67
2021/12/09 10:51:54;;;;;;;1.73;1.30;;;18.40;52.50;;;;;;5052243;28;20178;-66
2021/12/09 10:54:32;;;;;;;1.85;1.50;;;18.30;52.60;;;;;;5050699;28;20182;-67
2021/12/09 10:57:18;;;;;;;3.42;1.58;;;18.10;52.90;;;;;;5052555;28;20629;-67
2021/12/09 10:59:43;;;;;;;1.38;1.23;;;18.00;53.10;;;;;;5051397;28;20193;-68
2021/12/09 11:02:09;;;;;;;1.77;1.27;;;17.90;53.10;;;;;;5051902;28;20171;-67
2021/12/09 11:04:35;;;;;;;1.58;1.48;;;17.90;53.20;;;;;;5052195;28;20183;-67
2021/12/09 11:07:17;;;;;;;2.25;1.60;;;18.00;53.20;;;;;;5051459;28;20182;-67
2021/12/09 11:09:43;;;;;;;1.88;1.50;;;18.00;53.10;;;;;;5051249;28;20282;-67
2021/12/09 11:12:09;;;;;;;2.15;1.55;;;18.00;53.10;;;;;;5052519;28;20258;-67
2021/12/09 11:14:35;;;;;;;1.85;1.40;;;18.00;53.00;;;;;;5050074;28;20187;-67
2021/12/09 11:17:06;;;;;;;2.35;1.70;;;18.10;53.10;;;;;;5050897;28;20171;-67
2021/12/09 11:19:39;;;;;;;2.13;1.33;;;18.10;53.00;;;;;;5052119;28;20526;-66
2021/12/09 11:22:07;;;;;;;2.60;1.60;;;18.10;53.00;;;;;;5051797;28;20657;-66
2021/12/09 11:24:36;;;;;;;1.45;1.20;;;18.10;52.90;;;;;;5052029;28;20194;-66
2021/12/09 11:27:07;;;;;;;2.70;1.63;;;18.10;52.80;;;;;;5052220;28;20534;-66
2021/12/09 11:29:37;;;;;;;2.80;1.80;;;18.20;52.70;;;;;;5051275;28;20226;-66
2021/12/09 11:32:13;;;;;;;2.45;1.55;;;18.20;52.70;;;;;;5052317;28;20183;-67
2021/12/09 11:34:43;;;;;;;1.90;1.30;;;18.30;52.60;;;;;;5052022;28;20232;-68
2021/12/09 11:37:22;;;;;;;2.30;1.35;;;18.30;52.60;;;;;;5051460;28;20598;-67
2021/12/09 11:39:48;;;;;;;1.63;1.48;;;18.30;52.50;;;;;;5050994;28;20205;-67
2021/12/09 11:42:22;;;;;;;2.50;1.60;;;18.30;52.50;;;;;;5051999;28;20201;-67
2021/12/09 11:44:48;;;;;;;1.75;1.35;;;18.30;52.50;;;;;;5052198;28;20187;-67
2021/12/09 11:47:14;;;;;;;1.70;1.40;;;18.20;52.60;;;;;;5052039;28;20724;-67
2021/12/09 11:49:40;;;;;;;2.13;1.60;;;18.10;52.70;;;;;;5051075;28;20175;-67
2021/12/09 11:52:06;;;;;;;1.67;1.25;;;18.00;53.00;;;;;;5051716;28;20207;-67
2021/12/09 11:54:32;;;;;;;1.42;1.20;;;17.90;53.20;;;;;;5051479;28;20548;-67
2021/12/09 11:57:14;;;;;;;1.38;1.27;;;17.90;53.30;;;;;;5050946;28;20172;-68
2021/12/09 12:06:38;;;;;;;1.63;1.30;;;17.90;53.30;;;;;;5049990;28;20203;-67
2021/12/09 12:11:21;;;;;;;1.30;1.20;;;17.90;53.40;;;;;;5040422;28;20195;-65
2021/12/09 12:14:03;;;;;;;1.42;1.30;;;18.00;53.30;;;;;;5051525;28;20266;-64
2021/12/09 12:16:48;;;;;;;5.28;1.23;;;18.10;53.10;;;;;;5051460;28;20212;-64
2021/12/09 12:19:39;;;;;;;2.03;1.08;;;18.00;53.20;;;;;;5050884;28;20183;-63
2021/12/09 12:22:37;;;;;;;2.97;1.30;;;18.00;53.40;;;;;;5050214;28;20285;-65
2021/12/09 12:25:06;;;;;;;4.28;1.30;;;18.00;53.40;;;;;;5049398;28;20209;-64
2021/12/09 12:28:16;;;;;;;4.95;1.50;;;18.00;53.40;;;;;;5051261;28;20222;-63
2021/12/09 12:31:17;;;;;;;3.60;1.38;;;18.00;53.80;;;;;;5049915;28;20589;-64
2021/12/09 12:37:08;;;;;;;5.00;1.27;;;17.90;53.70;;;;;;5050960;28;20176;-65
2021/12/09 12:42:15;;;;;;;4.97;1.70;;;17.90;53.90;;;;;;5051589;28;20197;-65
2021/12/09 12:47:58;;;;;;;4.57;2.05;;;18.00;53.80;;;;;;5050445;28;20301;-64
2021/12/09 12:50:23;;;;;;;4.15;1.55;;;18.00;53.80;;;;;;5051147;28;20190;-64
2021/12/09 12:52:50;;;;;;;3.15;1.33;;;18.00;53.80;;;;;;5050182;28;20616;-65
2021/12/09 12:55:20;;;;;;;3.20;1.30;;;18.10;53.70;;;;;;5051235;28;20176;-65
2021/12/09 12:57:51;;;;;;;7.53;1.73;;;18.10;53.70;;;;;;5051372;28;20179;-65
2021/12/09 13:00:28;;;;;;;2.80;1.60;;;18.10;53.60;;;;;;5050393;28;20207;-64
2021/12/09 13:05:27;;;;;;;7.00;1.83;;;18.10;53.80;;;;;;5050621;28;20183;-66
2021/12/09 13:10:30;;;;;;;3.80;1.73;;;18.00;54.10;;;;;;5050824;28;20182;-63
2021/12/09 13:13:16;;;;;;;4.85;1.60;;;17.90;54.20;;;;;;5054069;28;20179;-63
2021/12/09 13:16:16;;;;;;;1.88;1.30;;;17.90;54.20;;;;;;5053818;28;20186;-65
2021/12/09 13:18:52;;;;;;;3.55;1.50;;;17.80;54.20;;;;;;5053564;28;20657;-64
2021/12/09 13:21:38;;;;;;;9.10;1.55;;;17.90;54.20;;;;;;5059357;28;20186;-65
2021/12/09 13:24:25;;;;;;;5.32;1.70;;;17.90;54.20;;;;;;5067718;28;20173;-64